createdAt,value
2022-11-06T00:00:31.511Z,14.00
2022-11-06T00:03:01.625Z,13.63
2022-11-06T00:05:48.528Z,14.50
2022-11-06T00:08:25.677Z,14.23
2022-11-06T00:10:53.116Z,15.65
2022-11-06T00:13:20.596Z,15.43
2022-11-06T00:15:47.762Z,14.18
2022-11-06T00:18:15.558Z,15.07
2022-11-06T00:20:43.053Z,14.25
2022-11-06T00:23:10.617Z,16.38
2022-11-06T00:25:41.318Z,15.27
2022-11-06T00:28:09.561Z,15.15
2022-11-06T00:30:37.512Z,14.93
2022-11-06T00:33:05.018Z,14.00
2022-11-06T00:35:32.172Z,16.23
2022-11-06T00:37:59.701Z,15.73
2022-11-06T00:40:26.840Z,15.00
2022-11-06T00:42:55.838Z,13.50
2022-11-06T00:45:24.794Z,14.85
2022-11-06T00:47:52.606Z,15.93
2022-11-06T00:50:19.876Z,14.00
2022-11-06T00:52:47.342Z,13.98
2022-11-06T00:55:14.706Z,12.52
2022-11-06T00:57:42.192Z,14.45
2022-11-06T01:00:11.322Z,18.88
2022-11-06T01:02:39.316Z,16.17
2022-11-06T01:05:07.088Z,15.40
2022-11-06T01:07:34.540Z,16.88
2022-11-06T01:10:01.787Z,14.38
2022-11-06T01:12:33.038Z,15.40
2022-11-06T01:15:00.370Z,14.73
2022-11-06T01:17:29.020Z,15.85
2022-11-06T01:19:56.156Z,15.85
2022-11-06T01:22:23.645Z,15.32
2022-11-06T01:24:51.079Z,15.38
2022-11-06T01:27:27.372Z,15.52
2022-11-06T01:29:55.749Z,16.02
2022-11-06T01:32:23.219Z,17.10
2022-11-06T01:34:51.962Z,17.48
2022-11-06T01:37:19.513Z,17.23
2022-11-06T01:39:48.589Z,19.63
2022-11-06T01:42:19.250Z,16.63
2022-11-06T01:45:08.052Z,19.77
2022-11-06T01:47:35.618Z,16.85
2022-11-06T01:50:09.571Z,14.52
2022-11-06T01:52:37.693Z,15.30
2022-11-06T01:55:19.670Z,15.88
2022-11-06T01:57:48.587Z,16.25
2022-11-06T02:00:16.340Z,15.13
2022-11-06T02:02:44.223Z,14.90
2022-11-06T02:05:11.724Z,15.35
2022-11-06T02:07:41.712Z,16.90
2022-11-06T02:10:09.698Z,17.98
2022-11-06T02:12:54.768Z,16.40
2022-11-06T02:15:43.172Z,15.25
2022-11-06T02:18:16.859Z,16.23
2022-11-06T02:21:19.727Z,14.30
2022-11-06T02:24:31.379Z,16.17
2022-11-06T02:27:33.887Z,15.80
2022-11-06T02:30:13.815Z,17.27
2022-11-06T02:32:59.728Z,15.35
2022-11-06T02:35:34.943Z,15.18
2022-11-06T02:38:16.914Z,16.50
2022-11-06T02:40:58.109Z,16.67
2022-11-06T02:43:55.654Z,15.80
2022-11-06T02:46:46.717Z,15.07
2022-11-06T02:49:29.599Z,17.08
2022-11-06T02:52:06.821Z,16.35
2022-11-06T02:54:41.235Z,15.30
2022-11-06T02:57:15.711Z,16.60
2022-11-06T03:00:02.803Z,16.50
2022-11-06T03:02:56.192Z,18.85
2022-11-06T03:06:03.984Z,16.80
2022-11-06T03:08:43.185Z,15.77
2022-11-06T03:11:22.689Z,15.95
2022-11-06T03:13:53.074Z,13.25
2022-11-06T03:16:42.716Z,15.38
2022-11-06T03:19:45.607Z,16.08
2022-11-06T03:22:41.975Z,15.60
2022-11-06T03:25:42.085Z,14.63
2022-11-06T03:28:20.588Z,14.05
2022-11-06T03:30:58.702Z,15.65
2022-11-06T03:33:50.899Z,13.00
2022-11-06T03:36:25.410Z,14.50
2022-11-06T03:39:05.471Z,14.52
2022-11-06T03:41:48.214Z,16.23
2022-11-06T03:44:22.767Z,19.38
2022-11-06T03:47:01.852Z,21.75
2022-11-06T03:49:42.249Z,19.30
2022-11-06T03:52:18.367Z,20.60
2022-11-06T03:55:01.710Z,22.60
2022-11-06T03:57:47.949Z,18.33
2022-11-06T04:00:17.200Z,16.98
2022-11-06T04:02:53.086Z,18.95
2022-11-06T04:05:24.719Z,17.23
2022-11-06T04:08:15.240Z,17.92
2022-11-06T04:11:08.933Z,16.90
2022-11-06T04:13:58.197Z,16.23
2022-11-06T04:16:40.076Z,19.17
2022-11-06T04:19:18.926Z,15.75
2022-11-06T04:22:13.687Z,15.20
2022-11-06T04:25:52.959Z,18.02
2022-11-06T04:28:33.746Z,17.60
2022-11-06T04:31:23.777Z,14.88
2022-11-06T04:34:04.755Z,14.98
2022-11-06T04:36:47.516Z,16.75
2022-11-06T04:40:28.438Z,17.63
2022-11-06T04:43:30.267Z,19.48
2022-11-06T04:46:01.010Z,19.13
2022-11-06T04:48:30.473Z,21.25
2022-11-06T04:51:06.194Z,17.27
2022-11-06T04:53:35.389Z,18.00
2022-11-06T04:56:11.742Z,17.65
2022-11-06T04:58:39.740Z,19.20
2022-11-06T05:01:07.328Z,15.75
2022-11-06T05:03:34.950Z,14.32
2022-11-06T05:06:03.317Z,17.30
2022-11-06T05:08:30.930Z,18.73
2022-11-06T05:10:58.084Z,13.85
2022-11-06T05:13:25.534Z,12.82
2022-11-06T05:15:57.909Z,19.05
2022-11-06T05:18:27.521Z,22.27
2022-11-06T05:21:15.017Z,18.48
2022-11-06T05:23:43.023Z,19.58
2022-11-06T05:26:10.308Z,20.42
2022-11-06T05:28:37.810Z,18.30
2022-11-06T05:31:05.835Z,16.23
2022-11-06T05:33:33.470Z,18.17
2022-11-06T05:36:05.924Z,17.63
2022-11-06T05:38:34.064Z,18.30
2022-11-06T05:41:01.327Z,18.67
2022-11-06T05:43:29.046Z,20.83
2022-11-06T05:45:56.323Z,19.55
2022-11-06T05:48:23.848Z,16.77
2022-11-06T05:50:51.075Z,20.08
2022-11-06T05:53:19.213Z,17.08
2022-11-06T05:55:47.341Z,21.25
2022-11-06T05:58:15.536Z,19.50
2022-11-06T06:00:42.974Z,18.65
2022-11-06T06:03:11.286Z,20.90
2022-11-06T06:05:38.575Z,19.08
2022-11-06T06:08:06.836Z,17.35
2022-11-06T06:10:34.097Z,13.45
2022-11-06T06:13:01.565Z,16.70
2022-11-06T06:15:28.786Z,11.95
2022-11-06T06:17:58.053Z,17.05
2022-11-06T06:20:25.645Z,13.57
2022-11-06T06:22:58.078Z,15.00
2022-11-06T06:25:26.701Z,16.02
2022-11-06T06:27:55.152Z,16.25
2022-11-06T06:30:23.484Z,16.65
2022-11-06T06:32:51.935Z,19.08
2022-11-06T06:35:19.283Z,18.58
2022-11-06T06:37:54.613Z,22.70
2022-11-06T06:40:23.227Z,21.35
2022-11-06T06:42:50.724Z,18.55
2022-11-06T06:45:17.966Z,20.48
2022-11-06T06:47:45.414Z,15.05
2022-11-06T06:50:12.714Z,19.20
2022-11-06T06:52:40.122Z,18.15
2022-11-06T06:55:07.736Z,21.08
2022-11-06T06:57:35.210Z,18.30
2022-11-06T07:00:02.478Z,21.38
2022-11-06T07:02:30.063Z,28.65
2022-11-06T07:04:57.377Z,26.48
2022-11-06T07:07:24.871Z,18.98
2022-11-06T07:09:52.420Z,18.98
2022-11-06T07:12:19.941Z,18.30
2022-11-06T07:14:47.085Z,22.48
2022-11-06T07:17:14.645Z,22.70
2022-11-06T07:19:41.808Z,23.33
2022-11-06T07:22:09.291Z,24.88
2022-11-06T07:24:36.460Z,27.35
2022-11-06T07:27:04.021Z,29.90
2022-11-06T07:29:31.252Z,26.17
2022-11-06T07:31:58.772Z,24.17
2022-11-06T07:34:25.913Z,17.20
2022-11-06T07:36:53.435Z,20.55
2022-11-06T07:39:20.592Z,18.42
2022-11-06T07:41:48.024Z,15.15
2022-11-06T07:44:15.215Z,15.23
2022-11-06T07:46:43.880Z,17.85
2022-11-06T07:49:11.229Z,19.58
2022-11-06T07:51:39.174Z,17.80
2022-11-06T07:54:06.328Z,19.63
2022-11-06T07:56:34.137Z,24.33
2022-11-06T07:59:01.408Z,22.77
2022-11-06T08:01:28.982Z,24.70
2022-11-06T08:03:56.233Z,23.73
2022-11-06T08:06:23.671Z,25.58
2022-11-06T08:08:53.765Z,23.50
2022-11-06T08:11:25.271Z,22.20
2022-11-06T08:13:52.416Z,25.05
2022-11-06T08:16:19.912Z,20.50
2022-11-06T08:18:47.046Z,21.08
2022-11-06T08:21:14.543Z,16.73
2022-11-06T08:23:41.692Z,17.02
2022-11-06T08:26:10.657Z,19.48
2022-11-06T08:28:38.080Z,23.67
2022-11-06T08:31:07.603Z,29.80
2022-11-06T08:33:38.655Z,22.27
2022-11-06T08:36:09.261Z,22.73
2022-11-06T08:38:36.962Z,22.02
2022-11-06T08:41:11.334Z,21.77
2022-11-06T08:43:39.711Z,23.40
2022-11-06T08:46:09.607Z,23.73
2022-11-06T08:48:37.433Z,21.27
2022-11-06T08:51:06.414Z,15.18
2022-11-06T08:53:34.595Z,19.33
2022-11-06T08:56:05.814Z,20.42
2022-11-06T08:58:33.260Z,20.40
2022-11-06T09:01:00.758Z,19.90
2022-11-06T09:03:27.976Z,20.38
2022-11-06T09:05:55.507Z,20.58
2022-11-06T09:08:24.226Z,20.45
2022-11-06T09:10:57.261Z,18.73
2022-11-06T09:13:26.411Z,15.75
2022-11-06T09:15:53.944Z,16.77
2022-11-06T09:18:21.120Z,12.98
2022-11-06T09:20:48.668Z,14.90
2022-11-06T09:23:17.300Z,16.25
2022-11-06T09:25:44.886Z,14.82
2022-11-06T09:28:12.062Z,15.70
2022-11-06T09:30:39.626Z,12.30
2022-11-06T09:33:12.216Z,11.65
2022-11-06T09:35:41.746Z,15.00
2022-11-06T09:38:12.905Z,15.65
2022-11-06T09:40:53.700Z,16.67
2022-11-06T09:46:44.494Z,16.15
2022-11-06T09:49:22.951Z,17.17
2022-11-06T09:52:11.083Z,16.52
2022-11-06T09:54:56.271Z,17.73
2022-11-06T09:57:37.983Z,14.57
2022-11-06T10:00:11.667Z,12.57
2022-11-06T10:02:57.908Z,12.57
2022-11-06T10:05:38.305Z,11.38
2022-11-06T10:08:27.142Z,10.55
2022-11-06T10:11:15.645Z,12.15
2022-11-06T10:14:07.360Z,11.77
2022-11-06T10:17:01.619Z,12.27
2022-11-06T10:20:10.943Z,10.65
2022-11-06T10:23:03.433Z,11.35
2022-11-06T10:26:13.994Z,10.73
2022-11-06T10:29:34.046Z,11.73
2022-11-06T10:32:38.609Z,11.60
2022-11-06T10:35:30.705Z,9.70
2022-11-06T10:38:13.985Z,11.13
2022-11-06T10:40:49.021Z,20.48
2022-11-06T10:43:25.095Z,14.85
2022-11-06T10:46:19.045Z,11.40
2022-11-06T10:49:21.027Z,11.18
2022-11-06T10:52:26.417Z,10.00
2022-11-06T10:55:36.934Z,8.75
2022-11-06T10:58:12.060Z,11.20
2022-11-06T11:00:40.339Z,9.60
2022-11-06T11:03:32.938Z,9.68
2022-11-06T11:06:01.854Z,9.88
2022-11-06T11:08:36.194Z,10.45
2022-11-06T11:11:05.235Z,8.23
2022-11-06T11:13:33.493Z,6.50
2022-11-06T11:16:03.485Z,9.30
2022-11-06T11:18:34.503Z,10.25
2022-11-06T11:21:18.840Z,6.85
2022-11-06T11:24:01.414Z,6.03
2022-11-06T11:26:32.943Z,5.45
2022-11-06T11:29:16.291Z,5.50
2022-11-06T11:31:51.858Z,5.70
2022-11-06T11:34:27.587Z,7.43
2022-11-06T11:37:06.075Z,6.07
2022-11-06T11:39:44.087Z,5.60
2022-11-06T11:42:32.652Z,4.80
2022-11-06T11:45:09.019Z,4.47
2022-11-06T11:47:42.690Z,6.40
2022-11-06T11:50:31.651Z,6.70
2022-11-06T11:53:05.751Z,7.35
2022-11-06T11:55:43.495Z,7.05
2022-11-06T11:58:28.150Z,7.70
2022-11-06T12:01:04.472Z,6.55
2022-11-06T12:03:42.132Z,7.28
2022-11-06T12:06:18.645Z,7.13
2022-11-06T12:08:54.175Z,7.40
2022-11-06T12:11:27.329Z,7.72
2022-11-06T12:14:37.413Z,10.15
2022-11-06T12:17:21.082Z,9.70
2022-11-06T12:19:58.231Z,8.43
2022-11-06T12:22:37.985Z,9.63
2022-11-06T12:25:39.700Z,12.93
2022-11-06T12:28:19.135Z,13.13
2022-11-06T12:30:57.481Z,12.43
2022-11-06T12:34:04.067Z,11.77
2022-11-06T12:36:22.495Z,12.43
2022-11-06T12:39:04.180Z,13.57
2022-11-06T12:41:40.970Z,9.25
2022-11-06T12:44:16.214Z,8.80
2022-11-06T12:47:26.585Z,8.20
2022-11-06T12:50:12.250Z,9.50
2022-11-06T12:53:09.094Z,6.07
2022-11-06T12:55:56.747Z,6.78
2022-11-06T12:58:56.368Z,6.30
2022-11-06T13:01:57.308Z,4.60
2022-11-06T13:05:11.593Z,4.20
2022-11-06T13:08:16.516Z,4.70
2022-11-06T13:10:56.334Z,4.53
2022-11-06T13:14:12.310Z,5.13
2022-11-06T13:17:09.488Z,4.10
2022-11-06T13:19:55.211Z,4.22
2022-11-06T13:22:29.897Z,5.07
2022-11-06T13:25:52.933Z,4.63
2022-11-06T13:28:42.883Z,3.88
2022-11-06T13:31:16.665Z,3.72
2022-11-06T13:33:59.767Z,4.97
2022-11-06T13:36:29.964Z,4.65
2022-11-06T13:39:15.772Z,3.40
2022-11-06T13:41:42.938Z,3.53
2022-11-06T13:44:18.601Z,4.18
2022-11-06T13:47:21.644Z,4.28
2022-11-06T13:50:03.903Z,4.35
2022-11-06T13:52:52.017Z,6.97
2022-11-06T13:56:04.368Z,6.13
2022-11-06T13:59:09.712Z,5.57
2022-11-06T14:02:09.771Z,8.32
2022-11-06T14:05:00.989Z,8.63
2022-11-06T14:07:32.565Z,7.97
2022-11-06T14:10:00.337Z,6.10
2022-11-06T14:12:28.610Z,7.68
2022-11-06T14:15:24.765Z,8.85
2022-11-06T14:18:01.993Z,9.35
2022-11-06T14:20:39.332Z,11.68
2022-11-06T14:23:31.499Z,11.75
2022-11-06T14:26:12.468Z,13.13
2022-11-06T14:28:44.637Z,12.10
2022-11-06T14:31:50.222Z,12.30
2022-11-06T14:34:38.721Z,11.40
2022-11-06T14:37:31.189Z,10.40
2022-11-06T14:39:58.844Z,10.20
2022-11-06T14:42:34.473Z,20.48
2022-11-06T14:45:11.979Z,9.05
2022-11-06T14:48:00.181Z,7.68
2022-11-06T14:50:41.043Z,8.30
2022-11-06T14:53:23.381Z,8.30
2022-11-06T14:56:09.741Z,8.18
2022-11-06T14:58:47.126Z,7.10
2022-11-06T15:01:24.734Z,7.68
2022-11-06T15:03:57.960Z,9.25
2022-11-06T15:06:34.168Z,17.08
2022-11-06T15:09:14.145Z,19.98
2022-11-06T15:11:47.720Z,10.38
2022-11-06T15:14:15.231Z,9.90
2022-11-06T15:16:45.434Z,11.05
2022-11-06T15:19:26.613Z,12.07
2022-11-06T15:22:21.000Z,11.90
2022-11-06T15:24:55.721Z,10.50
2022-11-06T15:27:30.698Z,8.65
2022-11-06T15:30:03.913Z,9.40
2022-11-06T15:32:38.349Z,15.70
2022-11-06T15:35:16.080Z,12.25
2022-11-06T15:37:56.561Z,9.80
2022-11-06T15:40:38.401Z,10.57
2022-11-06T15:43:25.684Z,8.23
2022-11-06T15:46:11.267Z,7.80
2022-11-06T15:48:39.422Z,8.00
2022-11-06T15:51:40.413Z,7.75
2022-11-06T15:54:14.620Z,8.88
2022-11-06T15:56:42.522Z,9.18
2022-11-06T15:59:17.129Z,9.07
2022-11-06T16:01:49.546Z,12.18
2022-11-06T16:04:25.297Z,10.60
2022-11-06T16:06:55.237Z,10.98
2022-11-06T16:09:26.796Z,12.23
2022-11-06T16:11:55.641Z,13.43
2022-11-06T16:14:23.597Z,11.93
2022-11-06T16:16:54.509Z,11.30
2022-11-06T16:19:36.928Z,12.50
2022-11-06T16:22:10.119Z,10.90
2022-11-06T16:24:53.571Z,11.07
2022-11-06T16:27:23.605Z,12.02
2022-11-06T16:30:03.457Z,11.65
2022-11-06T16:32:39.967Z,13.50
2022-11-06T16:35:32.134Z,12.10
2022-11-06T16:38:41.978Z,14.18
2022-11-06T16:41:37.356Z,18.23
2022-11-06T16:44:44.005Z,15.32
2022-11-06T16:47:12.901Z,17.48
2022-11-06T16:49:53.871Z,18.55
2022-11-06T16:52:33.049Z,18.42
2022-11-06T16:55:17.043Z,19.00
2022-11-06T16:57:55.287Z,21.40
2022-11-06T17:00:33.476Z,18.80
2022-11-06T17:03:20.103Z,19.00
2022-11-06T17:06:23.676Z,26.02
2022-11-06T17:09:21.675Z,14.45
2022-11-06T17:11:58.115Z,13.07
2022-11-06T17:14:27.395Z,12.70
2022-11-06T17:17:01.289Z,13.32
2022-11-06T17:19:30.263Z,12.57
2022-11-06T17:21:58.242Z,13.48
2022-11-06T17:24:41.503Z,14.80
2022-11-06T17:27:08.929Z,13.45
2022-11-06T17:29:36.734Z,15.65
2022-11-06T17:32:04.334Z,17.33
2022-11-06T17:34:31.793Z,15.75
2022-11-06T17:36:59.107Z,16.73
2022-11-06T17:39:26.907Z,18.17
2022-11-06T17:41:54.616Z,17.35
2022-11-06T17:44:22.500Z,17.30
2022-11-06T17:46:50.009Z,16.20
2022-11-06T17:49:18.625Z,16.67
2022-11-06T17:51:53.660Z,15.35
2022-11-06T17:54:26.310Z,14.30
2022-11-06T17:56:55.951Z,13.05
2022-11-06T17:59:26.580Z,13.02
2022-11-06T18:01:55.357Z,13.80
2022-11-06T18:04:26.590Z,13.90
2022-11-06T18:06:55.031Z,14.02
2022-11-06T18:09:24.216Z,15.02
2022-11-06T18:11:54.363Z,16.23
2022-11-06T18:14:24.758Z,15.88
2022-11-06T18:16:53.140Z,15.27
2022-11-06T18:19:24.651Z,17.48
2022-11-06T18:21:52.441Z,17.73
2022-11-06T18:24:20.212Z,17.77
2022-11-06T18:26:47.570Z,18.85
2022-11-06T18:29:15.574Z,18.92
2022-11-06T18:31:43.049Z,19.17
2022-11-06T18:34:19.778Z,19.02
2022-11-06T18:36:50.656Z,17.77
2022-11-06T18:39:19.347Z,20.27
2022-11-06T18:41:46.762Z,19.60
2022-11-06T18:44:17.188Z,19.73
2022-11-06T18:46:46.597Z,18.80
2022-11-06T18:49:15.062Z,20.10
2022-11-06T18:51:42.421Z,16.77
2022-11-06T18:54:12.181Z,18.80
2022-11-06T18:56:39.731Z,18.98
2022-11-06T18:59:14.066Z,21.10
2022-11-06T19:01:41.430Z,18.85
2022-11-06T19:04:10.915Z,18.38
2022-11-06T19:06:40.245Z,17.13
2022-11-06T19:09:09.700Z,18.67
2022-11-06T19:11:37.264Z,17.10
2022-11-06T19:14:05.105Z,16.90
2022-11-06T19:16:32.307Z,15.80
2022-11-06T19:19:05.834Z,15.88
2022-11-06T19:21:34.064Z,15.55
2022-11-06T19:24:05.661Z,16.30
2022-11-06T19:26:37.666Z,15.88
2022-11-06T19:29:08.641Z,16.73
2022-11-06T19:31:37.793Z,16.58
2022-11-06T19:34:08.270Z,16.48
2022-11-06T19:36:36.032Z,18.13
2022-11-06T19:39:04.695Z,17.25
2022-11-06T19:41:31.906Z,17.35
2022-11-06T19:43:59.697Z,17.00
2022-11-06T19:46:32.379Z,17.60
2022-11-06T19:49:07.518Z,15.73
2022-11-06T19:51:37.642Z,17.58
2022-11-06T19:54:10.055Z,17.77
2022-11-06T19:57:27.012Z,17.38
2022-11-06T19:59:25.802Z,18.80
2022-11-06T20:01:53.294Z,17.17
2022-11-06T20:04:20.978Z,18.98
2022-11-06T20:06:48.248Z,18.92
2022-11-06T20:09:15.865Z,19.88
2022-11-06T20:11:43.195Z,19.27
2022-11-06T20:14:10.688Z,18.20
2022-11-06T20:16:38.100Z,18.75
2022-11-06T20:19:05.681Z,19.20
2022-11-06T20:21:33.131Z,18.40
2022-11-06T20:24:00.828Z,19.17
2022-11-06T20:26:28.216Z,19.75
2022-11-06T20:28:55.676Z,20.92
2022-11-06T20:31:23.473Z,19.30
2022-11-06T20:33:52.249Z,20.25
2022-11-06T20:36:26.638Z,19.40
2022-11-06T20:38:58.846Z,20.27
2022-11-06T20:41:28.019Z,18.65
2022-11-06T20:43:56.490Z,18.42
2022-11-06T20:46:25.208Z,18.48
2022-11-06T20:48:53.266Z,18.58
2022-11-06T20:51:29.398Z,17.98
2022-11-06T20:53:56.921Z,19.10
2022-11-06T20:56:27.352Z,17.73
2022-11-06T20:58:56.790Z,18.50
2022-11-06T21:01:27.303Z,18.58
2022-11-06T21:03:57.501Z,17.63
2022-11-06T21:06:27.665Z,17.02
2022-11-06T21:08:56.397Z,16.90
2022-11-06T21:11:27.341Z,17.25
2022-11-06T21:13:55.644Z,16.98
2022-11-06T21:16:34.827Z,16.05
2022-11-06T21:19:04.271Z,16.02
2022-11-06T21:21:35.064Z,17.58
2022-11-06T21:24:04.777Z,17.52
2022-11-06T21:26:37.025Z,16.60
2022-11-06T21:29:08.735Z,17.30
2022-11-06T21:31:36.544Z,17.13
2022-11-06T21:34:05.676Z,16.58
2022-11-06T21:36:37.692Z,17.98
2022-11-06T21:39:13.944Z,16.75
2022-11-06T21:41:41.870Z,16.27
2022-11-06T21:44:16.104Z,15.88
2022-11-06T21:46:45.681Z,16.70
2022-11-06T21:49:14.372Z,17.35
2022-11-06T21:51:41.707Z,15.63
2022-11-06T21:54:30.689Z,16.58
2022-11-06T21:56:58.080Z,17.90
2022-11-06T21:59:28.855Z,17.65
2022-11-06T22:01:56.503Z,17.20
2022-11-06T22:04:24.281Z,18.15
2022-11-06T22:06:54.900Z,16.80
2022-11-06T22:09:25.597Z,17.63
2022-11-06T22:11:53.531Z,17.30
2022-11-06T22:14:21.000Z,17.98
2022-11-06T22:16:48.594Z,17.25
2022-11-06T22:19:17.835Z,17.85
2022-11-06T22:21:45.407Z,16.50
2022-11-06T22:24:14.784Z,16.55
2022-11-06T22:26:42.639Z,17.48
2022-11-06T22:29:14.123Z,15.80
2022-11-06T22:31:41.680Z,16.45
2022-11-06T22:34:11.529Z,17.60
2022-11-06T22:36:39.621Z,17.23
2022-11-06T22:39:10.037Z,16.98
2022-11-06T22:41:38.269Z,15.85
2022-11-06T22:44:06.680Z,15.60
2022-11-06T22:46:34.291Z,16.85
2022-11-06T22:49:01.966Z,17.35
2022-11-06T22:51:31.502Z,16.92
2022-11-06T22:54:00.676Z,15.63
2022-11-06T22:56:30.330Z,16.60
2022-11-06T22:59:05.276Z,16.23
2022-11-06T23:01:37.461Z,16.38
2022-11-06T23:04:16.287Z,16.45
2022-11-06T23:06:46.518Z,15.82
2022-11-06T23:09:14.736Z,16.45
2022-11-06T23:11:45.611Z,15.82
2022-11-06T23:14:12.862Z,17.08
2022-11-06T23:17:00.420Z,16.75
2022-11-06T23:19:31.676Z,16.85
2022-11-06T23:22:18.049Z,18.00
2022-11-06T23:24:45.968Z,15.95
2022-11-06T23:27:13.615Z,17.23
2022-11-06T23:29:40.836Z,18.30
2022-11-06T23:32:08.384Z,17.90
2022-11-06T23:34:35.713Z,18.25
2022-11-06T23:37:03.137Z,18.08
2022-11-06T23:39:30.404Z,18.30
2022-11-06T23:41:57.881Z,19.63
2022-11-06T23:44:43.290Z,17.90
2022-11-06T23:47:10.746Z,18.20
2022-11-06T23:49:37.996Z,18.83
2022-11-06T23:52:05.566Z,19.17
2022-11-06T23:54:32.794Z,18.25
2022-11-06T23:57:00.240Z,18.92
2022-11-06T23:59:27.492Z,18.98
